Keene, NH (03431)

9:31 PM EDT on August 25, 2016 (GMT -0400)
Keene,Surry,Gilsum line-FN32UX | | Change Station

Elev 820 ft 42.98 °N, 72.30 °W | Updated 7 minutes ago

Mostly Cloudy
Mostly Cloudy
73.2 °F
Feels Like 73 °F
N
0.0
Wind Variable Wind from SSW

Today
High -- | Low -- °F
--% Chance of Precip.
Yesterday
High -- | Low -- °F
Precip. -- in
Pressure 30.04 in
Visibility 10.0 miles
Clouds Few 3300 ft
Mostly Cloudy 6000 ft
Heat Index 73 °F
Dew Point 68 °F
Humidity 84%
Rainfall 0.00 in
Snow Depth Not available.
6:06 AM 7:34 PM
Last Quarter, 40% visible
METAR KEEN 260056Z AUTO 20004KT 10SM FEW033 BKN060 23/21 A2999 RMK AO2 SLP170 T02330206
Pressure 30.04 in
Visibility 10.0 miles
Clouds Few 3300 ft
Mostly Cloudy 6000 ft
Heat Index 73 °F
Dew Point 68 °F
Humidity 84%
Rainfall 0.00 in
Snow Depth Not available.
6:06 AM 7:34 PM
Last Quarter, 40% visible
METAR KEEN 260056Z AUTO 20004KT 10SM FEW033 BKN060 23/21 A2999 RMK AO2 SLP170 T02330206
A tropical disturbance pushing toward the Bahamas, is expected to develop into a tropical depression or storm, and will likely target Florida and the Gulf Coast this weekend into next week.

Right now, the disturbance remains a broad area of low pressure pushing through the Dominican Republic and Haiti, headed toward the southeast Bahamas. Rainfall totals over 3 inches (with locally higher amounts) are expected in HispaƱiola, particularly over elevated terrain.

10-Day Weather Forecast

Almanac

Astronomy

Aug. 25, 2016 Rise Set
Actual Time
Civil Twilight
Nautical Twilight
Astronomical Twilight
Moon
Length of Visible Light
Length of Day
Tomorrow will be .
, % of the Moon is Illuminated

Today's Extremes

State Highs State Lows

Community

WunderPhotos

Upload Photos

1,935,017 photos uploaded!

WunderBlog® & News

Nearby

Air Quality

  Air Quality AQ Index Pollutant
Not available.

Snow Depth

Station Depth Elevation

Earthquake Activity

City Distance Mag. Time & Date
Minimum magnitude displayed is 2.5.

Coastal Water Temperatures

Place Temperature

Stations

Nearby Weather Stations

Station Location Temp. Windchill Dew Point Humidity Wind Precip. Elev Updated Type
                   

Watches & Warnings

There are currently no watches in effect.